Time;durP1;ratioP1;P1;durP2;ratioP2;P2;SDS_P1;SDS_P2;PMS_P1;PMS_P2;Temp;Humidity;BMP_temperature;BMP_pressure;BME280_temperature;BME280_humidity;BME280_pressure;Samples;Min_cycle;Max_cycle;Signal;HPM_P1;HPM_P2
2023/11/14 00:02:01;;;;;;;29.73;5.15;;;;;;;10.19;100.00;99823.06;5113316;28;20051;-47
2023/11/14 00:04:29;;;;;;;28.60;5.10;;;;;;;10.22;100.00;99823.63;5111591;28;20399;-50
2023/11/14 00:07:01;;;;;;;27.95;5.25;;;;;;;10.21;100.00;99816.72;5112120;28;20052;-48
2023/11/14 00:09:30;;;;;;;33.72;4.95;;;;;;;10.22;100.00;99809.66;5109799;28;20043;-57
2023/11/14 00:11:58;;;;;;;31.33;4.70;;;;;;;10.24;100.00;99805.13;5113478;28;20112;-57
2023/11/14 00:14:27;;;;;;;28.70;5.78;;;;;;;10.27;100.00;99825.91;5113549;28;20161;-45
2023/11/14 00:16:56;;;;;;;27.25;4.28;;;;;;;10.25;100.00;99810.28;5113313;28;20063;-48
2023/11/14 00:19:24;;;;;;;29.15;4.97;;;;;;;10.28;100.00;99817.91;5112613;28;20077;-49
2023/11/14 00:21:52;;;;;;;32.50;4.80;;;;;;;10.27;100.00;99820.66;5112717;28;20043;-46
2023/11/14 00:24:20;;;;;;;32.70;6.00;;;;;;;10.26;100.00;99816.34;5109815;28;20044;-48
2023/11/14 00:26:48;;;;;;;28.73;5.10;;;;;;;10.28;100.00;99822.31;5107648;28;20524;-48
2023/11/14 00:29:16;;;;;;;32.03;5.45;;;;;;;10.31;100.00;99832.59;5105529;28;20570;-47
2023/11/14 00:31:46;;;;;;;34.13;7.40;;;;;;;10.29;100.00;99823.97;5111841;28;20096;-50
2023/11/14 00:34:14;;;;;;;29.85;6.90;;;;;;;10.28;100.00;99823.16;5112092;28;20044;-46
2023/11/14 00:36:43;;;;;;;28.27;4.93;;;;;;;10.31;100.00;99827.34;5111202;28;20118;-48
2023/11/14 00:39:11;;;;;;;25.50;5.30;;;;;;;10.37;100.00;99842.63;5111522;28;20039;-46
2023/11/14 00:41:39;;;;;;;31.08;5.38;;;;;;;10.41;100.00;99841.44;5112136;28;20044;-45
2023/11/14 00:44:07;;;;;;;29.13;5.35;;;;;;;10.43;100.00;99847.41;5111643;28;20153;-47
2023/11/14 00:46:36;;;;;;;39.42;5.97;;;;;;;10.44;100.00;99842.97;5108334;28;20104;-47
2023/11/14 00:49:06;;;;;;;32.30;4.75;;;;;;;10.45;100.00;99842.84;5109170;28;20120;-48
2023/11/14 00:51:35;;;;;;;36.15;5.80;;;;;;;10.45;100.00;99844.66;5112527;28;20498;-48
2023/11/14 00:54:03;;;;;;;26.75;5.10;;;;;;;10.50;100.00;99826.72;5112925;28;20044;-46
2023/11/14 00:56:31;;;;;;;35.30;5.30;;;;;;;10.47;100.00;99833.06;5110337;28;20040;-46
2023/11/14 00:58:59;;;;;;;30.50;5.15;;;;;;;10.49;100.00;99838.19;5105834;28;20071;-49
2023/11/14 01:01:27;;;;;;;31.05;5.15;;;;;;;10.52;100.00;99835.31;5106942;28;20051;-45
2023/11/14 01:03:56;;;;;;;35.03;5.72;;;;;;;10.50;100.00;99842.50;5105871;28;20490;-47
2023/11/14 01:06:26;;;;;;;29.48;4.90;;;;;;;10.47;100.00;99854.09;5108264;28;20059;-48
2023/11/14 01:08:55;;;;;;;31.52;5.00;;;;;;;10.51;100.00;99852.03;5109549;28;20046;-47
2023/11/14 01:11:24;;;;;;;37.55;6.70;;;;;;;10.54;100.00;99862.31;5109341;28;20046;-47
2023/11/14 01:13:52;;;;;;;33.00;5.78;;;;;;;10.56;100.00;99843.78;5109142;28;20046;-47
2023/11/14 01:16:20;;;;;;;22.33;3.72;;;;;;;10.61;100.00;99849.53;5106999;28;20054;-46
2023/11/14 01:18:48;;;;;;;32.22;5.25;;;;;;;10.57;100.00;99848.91;5107664;28;20044;-46
2023/11/14 01:21:17;;;;;;;30.17;4.80;;;;;;;10.59;100.00;99846.16;5106990;28;20397;-46
2023/11/14 01:23:46;;;;;;;34.15;5.57;;;;;;;10.57;100.00;99864.69;5105273;28;20035;-47
2023/11/14 01:26:15;;;;;;;35.60;5.88;;;;;;;10.59;100.00;99861.94;5105203;28;20040;-46
2023/11/14 01:28:43;;;;;;;37.88;6.22;;;;;;;10.60;100.00;99869.69;5104477;28;20565;-47
2023/11/14 01:31:20;;;;;;;31.63;4.90;;;;;;;10.59;100.00;99860.16;5107119;28;20066;-46
2023/11/14 01:33:48;;;;;;;32.05;4.57;;;;;;;10.62;100.00;99866.94;5108701;28;20466;-46
2023/11/14 01:36:16;;;;;;;29.60;5.90;;;;;;;10.60;100.00;99876.75;5108809;28;20048;-46
2023/11/14 01:38:46;;;;;;;26.00;4.95;;;;;;;10.62;100.00;99866.94;5110688;28;20040;-45
2023/11/14 01:41:17;;;;;;;29.38;5.15;;;;;;;10.63;100.00;99866.84;5109021;28;20048;-50
2023/11/14 01:43:45;;;;;;;31.00;5.05;;;;;;;10.63;100.00;99874.72;5108299;28;20043;-49
2023/11/14 01:46:16;;;;;;;35.15;5.28;;;;;;;10.62;100.00;99877.47;5111594;28;20096;-47
2023/11/14 01:48:47;;;;;;;31.88;5.20;;;;;;;10.61;100.00;99876.63;5108691;28;20044;-48
2023/11/14 01:51:16;;;;;;;32.10;6.78;;;;;;;10.60;100.00;99885.47;5110684;28;20070;-50
2023/11/14 01:53:46;;;;;;;31.58;5.35;;;;;;;10.61;100.00;99870.56;5107918;28;20658;-49
2023/11/14 01:56:15;;;;;;;36.42;5.57;;;;;;;10.65;100.00;99888.56;5106690;28;20430;-49
2023/11/14 01:58:44;;;;;;;22.88;4.95;;;;;;;10.59;100.00;99883.81;5107138;28;20062;-50
2023/11/14 02:01:13;;;;;;;29.50;5.45;;;;;;;10.57;100.00;99877.00;5111533;28;20047;-48
2023/11/14 02:03:43;;;;;;;29.63;5.53;;;;;;;10.58;100.00;99886.56;5111356;28;20436;-47
2023/11/14 02:06:11;;;;;;;30.35;5.60;;;;;;;10.61;100.00;99887.16;5110645;28;20031;-49
2023/11/14 02:08:40;;;;;;;32.33;5.38;;;;;;;10.57;100.00;99896.25;5111309;28;20060;-46
2023/11/14 02:11:09;;;;;;;30.38;4.93;;;;;;;10.60;100.00;99898.63;5111470;28;20046;-50
2023/11/14 02:13:37;;;;;;;29.90;5.47;;;;;;;10.58;100.00;99911.06;5114282;28;20047;-49
2023/11/14 02:16:06;;;;;;;35.72;6.75;;;;;;;10.61;100.00;99931.03;5114112;28;20040;-49
2023/11/14 02:18:35;;;;;;;27.83;4.65;;;;;;;10.59;100.00;99928.53;5113808;28;20043;-49
2023/11/14 02:21:03;;;;;;;34.13;5.95;;;;;;;10.57;100.00;99933.06;5108663;28;20047;-49
2023/11/14 02:23:36;;;;;;;33.65;5.93;;;;;;;10.56;100.00;99928.75;5110903;28;20044;-49
2023/11/14 02:26:08;;;;;;;33.90;5.47;;;;;;;10.56;100.00;99931.38;5113359;28;20035;-48
2023/11/14 02:28:36;;;;;;;32.47;5.50;;;;;;;10.57;100.00;99934.84;5110504;28;20100;-48
2023/11/14 02:31:04;;;;;;;31.15;5.35;;;;;;;10.59;100.00;99927.66;5112954;28;20114;-50
2023/11/14 02:33:37;;;;;;;33.58;5.45;;;;;;;10.60;100.00;99924.09;5113930;27;20089;-51
2023/11/14 02:36:07;;;;;;;30.70;5.35;;;;;;;10.55;100.00;99915.72;5113484;28;20047;-47
2023/11/14 02:38:37;;;;;;;32.22;5.68;;;;;;;10.55;100.00;99919.22;5112675;28;20072;-57
2023/11/14 02:41:07;;;;;;;30.83;4.80;;;;;;;10.57;100.00;99927.78;5115464;28;20050;-57
2023/11/14 02:43:36;;;;;;;29.88;5.00;;;;;;;10.58;100.00;99929.47;5113005;28;20067;-56
2023/11/14 02:46:04;;;;;;;30.33;5.50;;;;;;;10.58;100.00;99937.34;5114186;28;20035;-56
2023/11/14 02:48:32;;;;;;;31.10;5.70;;;;;;;10.62;100.00;99930.91;5115620;28;20063;-56
2023/11/14 02:51:00;;;;;;;33.97;5.88;;;;;;;10.60;100.00;99924.09;5115576;28;20490;-56
2023/11/14 02:53:28;;;;;;;33.75;5.50;;;;;;;10.65;100.00;99938.53;5115535;28;20047;-56
2023/11/14 02:55:56;;;;;;;33.45;6.05;;;;;;;10.73;100.00;99942.34;5115539;28;20039;-56
2023/11/14 02:58:26;;;;;;;29.27;5.00;;;;;;;10.67;100.00;99941.03;5119833;27;20142;-56
2023/11/14 03:00:54;;;;;;;28.50;4.75;;;;;;;10.67;100.00;99950.72;5128068;27;20043;-56
2023/11/14 03:03:23;;;;;;;35.03;5.63;;;;;;;10.65;100.00;99945.59;5118013;27;20128;-56
2023/11/14 03:05:52;;;;;;;31.15;5.90;;;;;;;10.62;100.00;99946.69;5133788;27;20047;-56
2023/11/14 03:08:21;;;;;;;32.90;5.38;;;;;;;10.68;100.00;99952.41;5124177;27;20132;-56
2023/11/14 03:10:49;;;;;;;28.48;5.03;;;;;;;10.65;100.00;99956.13;5116623;27;20055;-56
2023/11/14 03:13:17;;;;;;;34.20;5.60;;;;;;;10.65;100.00;99962.19;5131561;27;20070;-56
2023/11/14 03:15:47;;;;;;;32.13;6.00;;;;;;;10.67;100.00;99966.50;5125142;27;20047;-48
2023/11/14 03:18:15;;;;;;;32.45;4.88;;;;;;;10.69;100.00;99961.94;5114263;27;20035;-49
2023/11/14 03:20:43;;;;;;;29.58;5.53;;;;;;;10.64;100.00;99967.59;5123729;27;20067;-49
2023/11/14 03:23:11;;;;;;;35.42;5.68;;;;;;;10.62;100.00;99970.34;5124939;27;20059;-48
2023/11/14 03:25:39;;;;;;;27.48;4.93;;;;;;;10.62;100.00;99978.22;5116789;27;20126;-47
2023/11/14 03:28:08;;;;;;;35.22;5.82;;;;;;;10.65;100.00;99961.38;5116914;27;20106;-47
2023/11/14 03:30:36;;;;;;;41.00;5.95;;;;;;;10.63;100.00;99969.38;5099584;27;20055;-46
2023/11/14 03:33:05;;;;;;;30.20;4.15;;;;;;;10.64;100.00;99965.78;5109114;27;20038;-47
2023/11/14 03:35:33;;;;;;;28.27;4.65;;;;;;;10.68;100.00;99984.78;5098090;27;20473;-48
2023/11/14 03:38:01;;;;;;;26.52;4.85;;;;;;;10.65;100.00;99969.25;5122252;27;20355;-45
2023/11/14 03:40:30;;;;;;;25.30;4.47;;;;;;;10.71;100.00;99967.94;5121986;27;20059;-48
2023/11/14 03:42:58;;;;;;;37.05;5.63;;;;;;;10.73;100.00;99963.38;5111938;27;20071;-45
2023/11/14 03:45:26;;;;;;;32.80;5.88;;;;;;;10.71;100.00;99965.31;5122924;27;20120;-46
2023/11/14 03:47:54;;;;;;;27.17;6.30;;;;;;;10.76;100.00;99963.97;5113802;27;20049;-45
2023/11/14 03:50:23;;;;;;;33.55;5.35;;;;;;;10.75;100.00;99959.66;5127995;27;20227;-48
2023/11/14 03:52:51;;;;;;;32.45;5.88;;;;;;;10.83;100.00;99964.31;5128299;27;20394;-49
2023/11/14 03:55:20;;;;;;;31.10;5.28;;;;;;;10.82;100.00;99962.66;5097810;27;20062;-50
2023/11/14 03:57:48;;;;;;;27.27;4.80;;;;;;;10.86;100.00;99958.81;5115633;27;20108;-46
2023/11/14 04:00:16;;;;;;;36.13;5.95;;;;;;;10.83;100.00;99967.78;5112285;27;20055;-46
2023/11/14 04:02:45;;;;;;;32.60;4.72;;;;;;;10.87;100.00;99957.84;5112433;28;20441;-46
2023/11/14 04:05:13;;;;;;;30.38;5.43;;;;;;;10.87;100.00;99967.56;5113247;28;20061;-49
2023/11/14 04:07:43;;;;;;;32.08;5.63;;;;;;;10.82;100.00;99974.03;5108904;28;20378;-45
2023/11/14 04:10:13;;;;;;;29.35;4.80;;;;;;;10.84;100.00;99968.63;5111931;28;20059;-56
2023/11/14 04:12:41;;;;;;;31.15;5.28;;;;;;;10.87;100.00;99984.16;5113548;28;20132;-56
2023/11/14 04:15:10;;;;;;;34.47;6.13;;;;;;;10.87;100.00;99999.13;5113811;28;20075;-57
2023/11/14 04:17:39;;;;;;;28.25;5.18;;;;;;;10.91;100.00;99997.91;5111342;28;20126;-49
2023/11/14 04:20:08;;;;;;;26.40;4.72;;;;;;;10.96;100.00;99999.22;5107611;28;20048;-49
2023/11/14 04:22:38;;;;;;;32.20;4.68;;;;;;;10.96;100.00;99996.59;5109870;28;20063;-47
2023/11/14 04:25:09;;;;;;;26.40;4.57;;;;;;;10.96;100.00;100006.25;5109473;28;20134;-47
2023/11/14 04:27:37;;;;;;;30.92;4.95;;;;;;;10.95;100.00;100000.16;5108602;27;20138;-46
2023/11/14 04:30:07;;;;;;;26.27;4.60;;;;;;;10.96;100.00;99993.94;5103175;28;20047;-45
2023/11/14 04:32:39;;;;;;;28.95;5.70;;;;;;;10.96;100.00;99995.72;5107502;28;20039;-47
2023/11/14 04:35:08;;;;;;;36.38;5.85;;;;;;;10.95;100.00;99989.63;5108078;28;20043;-46
2023/11/14 04:37:36;;;;;;;26.33;4.78;;;;;;;10.94;100.00;99987.97;5108204;28;20077;-47
2023/11/14 04:40:06;;;;;;;34.15;5.50;;;;;;;11.03;100.00;99993.44;5108289;28;20059;-46
2023/11/14 04:42:35;;;;;;;28.83;4.78;;;;;;;11.04;100.00;99982.78;5110773;28;20131;-49
2023/11/14 04:45:05;;;;;;;27.02;5.30;;;;;;;10.98;100.00;99976.22;5108425;28;20047;-49
2023/11/14 04:47:33;;;;;;;35.85;5.38;;;;;;;11.01;100.00;100000.63;5108180;28;20432;-48
2023/11/14 04:50:02;;;;;;;33.53;5.15;;;;;;;10.96;100.00;99993.94;5107917;28;20554;-48
2023/11/14 04:52:30;;;;;;;30.45;4.63;;;;;;;10.95;100.00;99988.81;5108137;28;20079;-47
2023/11/14 04:54:58;;;;;;;29.80;4.93;;;;;;;10.95;100.00;99984.38;5107089;28;20063;-49
2023/11/14 04:57:26;;;;;;;34.08;4.95;;;;;;;10.96;100.00;99993.09;5106216;28;20116;-46
2023/11/14 04:59:55;;;;;;;30.05;4.53;;;;;;;10.95;100.00;99988.81;5107603;28;20119;-44
2023/11/14 05:02:24;;;;;;;28.48;4.82;;;;;;;10.90;100.00;99986.53;5108416;28;20045;-46
2023/11/14 05:04:52;;;;;;;26.58;5.20;;;;;;;10.92;100.00;99997.78;5108932;28;20550;-45
2023/11/14 05:07:20;;;;;;;30.60;5.82;;;;;;;10.94;100.00;99987.13;5107453;28;20453;-45
2023/11/14 05:09:48;;;;;;;32.08;6.00;;;;;;;10.91;100.00;99998.75;5107851;28;20126;-47
2023/11/14 05:12:16;;;;;;;37.72;5.78;;;;;;;10.97;100.00;100000.88;5108829;28;20052;-46
2023/11/14 05:14:46;;;;;;;32.50;6.28;;;;;;;10.95;100.00;100007.22;5109864;28;20817;-46
2023/11/14 05:17:15;;;;;;;26.80;4.47;;;;;;;10.97;100.00;99986.88;5107515;28;20047;-48
2023/11/14 05:19:43;;;;;;;30.67;5.50;;;;;;;10.97;100.00;100005.31;5104889;28;20565;-46
2023/11/14 05:22:15;;;;;;;42.13;6.93;;;;;;;10.94;100.00;100009.00;5107148;28;20048;-48
2023/11/14 05:24:43;;;;;;;36.60;5.57;;;;;;;11.00;100.00;100031.34;5105527;28;20036;-49
2023/11/14 05:27:12;;;;;;;27.98;5.18;;;;;;;10.96;100.00;100025.53;5111348;28;20134;-47
2023/11/14 05:29:42;;;;;;;34.67;5.60;;;;;;;10.99;100.00;100027.06;5110869;28;20039;-49
2023/11/14 05:32:10;;;;;;;28.40;4.88;;;;;;;10.98;100.00;100039.38;5108848;28;20035;-48
2023/11/14 05:34:40;;;;;;;28.52;5.68;;;;;;;10.99;100.00;100040.22;5110927;28;20097;-47
2023/11/14 05:37:08;;;;;;;32.17;6.43;;;;;;;11.03;100.00;100027.66;5112510;28;20051;-45
2023/11/14 05:39:37;;;;;;;30.45;5.72;;;;;;;10.98;100.00;100030.66;5114971;28;20055;-47
2023/11/14 05:42:06;;;;;;;36.42;6.18;;;;;;;11.02;100.00;100018.09;5113990;28;20394;-49
2023/11/14 05:44:34;;;;;;;38.45;6.25;;;;;;;10.98;100.00;100010.44;5112523;28;20031;-49
2023/11/14 05:47:03;;;;;;;30.67;5.13;;;;;;;11.00;100.00;100012.94;5115274;28;20063;-49
2023/11/14 05:49:33;;;;;;;31.13;5.70;;;;;;;11.03;100.00;100011.84;5110727;27;20048;-47
2023/11/14 05:52:02;;;;;;;28.90;5.25;;;;;;;11.07;100.00;100010.66;5109099;28;20035;-49
2023/11/14 05:54:31;;;;;;;33.17;5.40;;;;;;;11.02;100.00;100007.59;5110572;28;20035;-50
2023/11/14 05:57:06;;;;;;;30.40;6.05;;;;;;;11.02;100.00;100007.59;5109517;28;20417;-49
2023/11/14 05:59:34;;;;;;;35.55;6.03;;;;;;;10.99;100.00;100001.59;5123236;27;20053;-46
2023/11/14 06:02:02;;;;;;;27.63;5.18;;;;;;;10.98;100.00;100013.06;5100345;28;20044;-49
2023/11/14 06:04:31;;;;;;;35.65;6.38;;;;;;;10.99;100.00;100014.75;5122083;27;20047;-51
2023/11/14 06:06:59;;;;;;;31.85;5.32;;;;;;;11.01;100.00;100000.63;5116055;27;20047;-48
2023/11/14 06:09:29;;;;;;;27.13;4.55;;;;;;;11.01;100.00;100019.88;5120679;27;20418;-48
2023/11/14 06:11:57;;;;;;;32.25;4.75;;;;;;;11.02;100.00;100013.66;5121397;27;20050;-46
2023/11/14 06:14:25;;;;;;;31.63;5.55;;;;;;;11.05;100.00;100023.13;5114895;27;20175;-47
2023/11/14 06:16:53;;;;;;;23.73;5.60;;;;;;;11.06;100.00;100035.31;5118407;27;20039;-49
2023/11/14 06:19:21;;;;;;;28.33;4.72;;;;;;;11.02;100.00;100037.34;5121865;27;20151;-47
2023/11/14 06:21:49;;;;;;;24.70;4.72;;;;;;;11.02;100.00;100045.25;5099083;28;20039;-49
2023/11/14 06:24:20;;;;;;;29.35;4.63;;;;;;;11.03;100.00;100046.06;5126335;27;20054;-47
2023/11/14 06:26:49;;;;;;;29.40;6.03;;;;;;;11.01;100.00;100035.66;5125014;27;20046;-46
2023/11/14 06:29:17;;;;;;;26.65;4.57;;;;;;;11.02;100.00;100039.16;5118811;27;20035;-56
2023/11/14 06:31:46;;;;;;;32.10;5.60;;;;;;;10.99;100.00;100063.91;5115275;27;20047;-47
2023/11/14 06:34:22;;;;;;;34.60;5.15;;;;;;;10.99;100.00;100058.66;5122381;27;20046;-47
2023/11/14 06:36:50;;;;;;;24.40;5.65;;;;;;;10.99;100.00;100071.81;5123551;27;20116;-46
2023/11/14 06:39:18;;;;;;;26.15;5.65;;;;;;;11.01;100.00;100067.25;5111723;27;20050;-46
2023/11/14 06:41:52;;;;;;;33.53;5.68;;;;;;;11.01;100.00;100069.03;5092476;28;20386;-45
2023/11/14 06:44:20;;;;;;;34.05;6.32;;;;;;;11.00;100.00;100076.09;5135106;27;20385;-56
2023/11/14 06:46:48;;;;;;;24.67;5.18;;;;;;;10.98;100.00;100070.94;5118864;27;20482;-45
2023/11/14 06:49:20;;;;;;;30.52;5.38;;;;;;;10.98;100.00;100081.47;5129962;27;20039;-56
2023/11/14 06:51:51;;;;;;;32.83;5.25;;;;;;;10.98;100.00;100068.31;5123690;27;20603;-46
2023/11/14 06:54:19;;;;;;;30.23;5.13;;;;;;;10.95;100.00;100083.53;5112742;27;20050;-48
2023/11/14 06:56:47;;;;;;;31.40;5.20;;;;;;;10.94;100.00;100071.31;5129295;27;20497;-45
2023/11/14 06:59:16;;;;;;;38.97;5.85;;;;;;;10.92;100.00;100068.81;5110046;27;20532;-45
2023/11/14 07:01:49;;;;;;;37.33;5.60;;;;;;;10.90;100.00;100069.88;5110152;28;20040;-47
2023/11/14 07:04:18;;;;;;;29.70;5.10;;;;;;;10.89;100.00;100087.44;5109400;28;20127;-46
2023/11/14 07:06:47;;;;;;;31.67;5.07;;;;;;;10.95;100.00;100079.09;5110083;28;20035;-50
2023/11/14 07:09:18;;;;;;;31.13;5.43;;;;;;;10.94;100.00;100084.47;5109562;28;20066;-47
2023/11/14 07:11:47;;;;;;;29.95;4.90;;;;;;;10.92;100.00;100086.38;5107002;28;20472;-48
2023/11/14 07:14:19;;;;;;;31.90;5.82;;;;;;;10.91;100.00;100076.84;5113624;28;20047;-56
2023/11/14 07:16:47;;;;;;;27.67;5.15;;;;;;;10.92;100.00;100081.13;5115104;28;20056;-56
2023/11/14 07:19:18;;;;;;;27.27;6.00;;;;;;;10.87;100.00;100080.66;5114766;28;20183;-56
2023/11/14 07:21:49;;;;;;;29.33;6.38;;;;;;;10.91;100.00;100077.66;5115150;28;20035;-56
2023/11/14 07:24:17;;;;;;;30.20;5.63;;;;;;;10.91;100.00;100088.19;5114908;28;20070;-58
2023/11/14 07:26:46;;;;;;;29.02;5.20;;;;;;;10.93;100.00;100093.31;5114770;28;20062;-56
2023/11/14 07:29:14;;;;;;;30.38;5.95;;;;;;;10.91;100.00;100092.63;5113809;28;20475;-56
2023/11/14 07:31:46;;;;;;;39.38;5.22;;;;;;;10.93;100.00;100091.50;5114646;28;20092;-57
2023/11/14 07:34:15;;;;;;;29.17;5.82;;;;;;;10.93;100.00;100081.00;5114783;28;20039;-56
2023/11/14 07:36:43;;;;;;;26.88;5.55;;;;;;;10.95;100.00;100086.97;5114799;28;20051;-56
2023/11/14 07:39:11;;;;;;;35.13;5.72;;;;;;;10.97;100.00;100078.97;5114533;28;20391;-56
2023/11/14 07:41:39;;;;;;;31.75;5.63;;;;;;;10.94;100.00;100082.66;5114583;28;20044;-57
2023/11/14 07:44:10;;;;;;;32.65;7.30;;;;;;;10.94;100.00;100093.19;5114682;28;20092;-56
2023/11/14 07:46:38;;;;;;;30.80;5.03;;;;;;;11.01;100.00;100101.44;5114082;28;20054;-56
2023/11/14 07:49:08;;;;;;;32.15;5.55;;;;;;;11.00;100.00;100102.41;5114236;28;20040;-58
2023/11/14 07:51:37;;;;;;;26.92;4.85;;;;;;;10.98;100.00;100096.44;5114322;28;20052;-58
2023/11/14 07:54:05;;;;;;;33.78;5.97;;;;;;;10.97;100.00;100078.97;5109350;28;20036;-50
2023/11/14 07:56:33;;;;;;;26.70;5.95;;;;;;;10.97;100.00;100082.41;5108527;28;20039;-49
2023/11/14 07:59:02;;;;;;;29.88;5.10;;;;;;;10.99;100.00;100088.41;5106977;28;20043;-47
2023/11/14 08:01:30;;;;;;;33.25;5.88;;;;;;;10.98;100.00;100089.38;5110415;28;20499;-45
2023/11/14 08:03:59;;;;;;;33.08;5.18;;;;;;;10.99;100.00;100092.84;5108502;28;20062;-48
2023/11/14 08:06:28;;;;;;;33.75;5.65;;;;;;;10.97;100.00;100094.75;5108508;28;20146;-45
2023/11/14 08:08:57;;;;;;;31.58;6.47;;;;;;;10.93;100.00;100096.78;5108946;28;20035;-46
2023/11/14 08:11:25;;;;;;;26.73;4.78;;;;;;;10.91;100.00;100103.16;5107621;28;20142;-46
2023/11/14 08:13:53;;;;;;;22.85;5.57;;;;;;;10.90;100.00;100099.66;5110692;28;20436;-46
2023/11/14 08:16:21;;;;;;;25.17;4.70;;;;;;;10.83;100.00;100095.84;5113367;28;20051;-45
2023/11/14 08:18:49;;;;;;;24.35;4.25;;;;;;;10.81;100.00;100101.22;5113086;28;20044;-45
2023/11/14 08:21:18;;;;;;;32.33;4.47;;;;;;;10.81;100.00;100100.38;5110113;28;20401;-46
2023/11/14 08:23:48;;;;;;;31.85;5.35;;;;;;;10.81;100.00;100100.38;5109570;28;20478;-46
2023/11/14 08:26:19;;;;;;;24.35;5.57;;;;;;;10.83;100.00;100101.09;5111979;28;20051;-47
2023/11/14 08:28:48;;;;;;;32.17;5.70;;;;;;;10.80;100.00;100096.91;5110891;28;20547;-56
2023/11/14 08:31:16;;;;;;;32.95;5.95;;;;;;;10.80;100.00;100093.44;5112480;28;20528;-57
2023/11/14 08:33:44;;;;;;;26.45;5.07;;;;;;;10.80;100.00;100107.44;5112594;28;20121;-56
2023/11/14 08:36:13;;;;;;;24.92;4.60;;;;;;;10.86;100.00;100106.13;5113093;28;20040;-56
2023/11/14 08:38:41;;;;;;;27.17;5.00;;;;;;;10.89;100.00;100111.13;5113231;28;20040;-56
2023/11/14 08:41:11;;;;;;;30.95;5.95;;;;;;;10.86;100.00;100100.03;5113234;28;20085;-56
2023/11/14 08:43:40;;;;;;;25.02;5.50;;;;;;;10.87;100.00;100088.56;5113652;28;20559;-57
2023/11/14 08:46:09;;;;;;;23.17;5.43;;;;;;;10.84;100.00;100084.38;5113569;28;20071;-57
2023/11/14 08:48:37;;;;;;;25.88;5.25;;;;;;;10.85;100.00;100083.38;5113699;28;20123;-57
2023/11/14 08:51:05;;;;;;;23.63;5.20;;;;;;;10.83;100.00;100086.13;5112777;28;20047;-56
2023/11/14 08:53:34;;;;;;;24.20;4.70;;;;;;;10.84;100.00;100108.03;5113933;28;20051;-58
2023/11/14 08:56:03;;;;;;;25.00;4.80;;;;;;;10.85;100.00;100106.22;5114005;28;20051;-57
2023/11/14 08:58:32;;;;;;;28.63;5.63;;;;;;;10.84;100.00;100108.03;5118941;27;20051;-56
2023/11/14 09:01:02;;;;;;;26.77;6.30;;;;;;;10.83;100.00;100101.09;5115865;27;20043;-57
2023/11/14 09:03:30;;;;;;;30.55;5.65;;;;;;;10.83;100.00;100094.03;5134524;27;20494;-57
2023/11/14 09:05:59;;;;;;;30.88;6.13;;;;;;;10.89;100.00;100100.59;5134033;27;20114;-57
2023/11/14 09:08:27;;;;;;;25.05;4.90;;;;;;;10.92;100.00;100105.66;5132980;27;20062;-57
2023/11/14 09:10:56;;;;;;;26.88;5.15;;;;;;;10.91;100.00;100101.34;5133978;27;20035;-57
2023/11/14 09:13:24;;;;;;;23.40;4.60;;;;;;;10.93;100.00;100103.84;5115399;28;20447;-57
2023/11/14 09:15:54;;;;;;;29.50;6.60;;;;;;;11.06;100.00;100098.47;5133989;28;20043;-56
2023/11/14 09:18:26;;;;;;;;;;;;;;;11.07;100.00;100100.13;5134995;28;20065;-57
2023/11/14 09:20:55;;;;;;;29.42;5.38;;;;;;;11.12;100.00;100100.59;5134183;28;19962;-57
2023/11/14 09:23:23;;;;;;;25.65;5.10;;;;;;;11.13;100.00;100113.63;5115744;28;20043;-56
2023/11/14 09:25:52;;;;;;;34.40;5.63;;;;;;;11.16;100.00;100104.66;5134200;28;20553;-56
2023/11/14 09:28:20;;;;;;;26.23;5.20;;;;;;;11.21;100.00;100112.19;5134147;28;20039;-56
2023/11/14 09:30:49;;;;;;;26.27;5.47;;;;;;;11.26;100.00;100110.88;5133565;28;20084;-57
2023/11/14 09:33:21;;;;;;;28.33;5.28;;;;;;;11.32;100.00;100122.72;5133842;28;20053;-45
2023/11/14 09:35:50;;;;;;;31.50;6.13;;;;;;;11.29;100.00;100118.53;5130703;28;20165;-46
2023/11/14 09:38:18;;;;;;;32.67;6.35;;;;;;;11.32;100.00;100123.53;5128914;28;20047;-48
2023/11/14 09:40:47;;;;;;;27.58;4.78;;;;;;;11.37;100.00;100119.69;5131825;28;20039;-47
2023/11/14 09:43:17;;;;;;;26.15;4.82;;;;;;;11.41;100.00;100118.50;5128625;28;20055;-47
2023/11/14 09:45:46;;;;;;;28.75;5.43;;;;;;;11.43;100.00;100127.94;5129077;28;20720;-50
2023/11/14 09:48:14;;;;;;;33.35;5.63;;;;;;;11.51;100.00;100129.97;5129166;28;20043;-47
2023/11/14 09:50:45;;;;;;;26.75;4.53;;;;;;;11.55;100.00;100126.13;5128896;28;20039;-49
2023/11/14 09:53:14;;;;;;;31.95;5.57;;;;;;;11.66;100.00;100135.81;5129197;28;20035;-46
2023/11/14 09:55:45;;;;;;;28.00;4.82;;;;;;;11.69;100.00;100132.91;5129161;28;20050;-47
2023/11/14 09:58:13;;;;;;;27.80;4.93;;;;;;;11.76;100.00;100136.72;5128591;28;20067;-46
2023/11/14 10:00:42;;;;;;;27.67;5.10;;;;;;;11.80;100.00;100142.56;5130657;28;20046;-46
2023/11/14 10:03:11;;;;;;;31.88;5.55;;;;;;;11.83;100.00;100143.19;5132222;28;20055;-49
2023/11/14 10:05:39;;;;;;;33.75;5.95;;;;;;;11.87;100.00;100150.81;5132309;28;20517;-48
2023/11/14 10:08:13;;;;;;;31.90;4.90;;;;;;;11.93;100.00;100143.25;5110684;28;20413;-46
2023/11/14 10:11:04;;;;;;;32.97;5.65;;;;;;;11.98;100.00;100143.75;5129301;28;20039;-47
2023/11/14 10:13:32;;;;;;;29.40;5.63;;;;;;;12.06;100.00;100142.28;5129184;28;20436;-47
2023/11/14 10:16:18;;;;;;;26.38;5.10;;;;;;;12.11;100.00;100140.09;5129041;28;20043;-46
2023/11/14 10:18:48;;;;;;;26.50;4.90;;;;;;;12.19;100.00;100135.03;5130337;27;20047;-46
2023/11/14 10:21:30;;;;;;;32.15;5.68;;;;;;;12.33;100.00;100141.78;5132404;27;20049;-50
2023/11/14 10:24:12;;;;;;;24.92;5.05;;;;;;;12.47;100.00;100140.63;5132989;27;20051;-46
2023/11/14 10:26:50;;;;;;;26.80;5.18;;;;;;;12.64;100.00;100137.38;5132398;27;20558;-45
2023/11/14 10:29:20;;;;;;;27.75;5.20;;;;;;;12.76;100.00;100134.66;5135149;27;20043;-48
2023/11/14 10:31:52;;;;;;;27.48;5.47;;;;;;;12.84;100.00;100137.47;5132358;27;20402;-45
2023/11/14 10:34:28;;;;;;;35.85;5.85;;;;;;;12.92;100.00;100137.66;5134639;27;20107;-48
2023/11/14 10:36:58;;;;;;;26.38;5.38;;;;;;;12.97;100.00;100132.81;5135618;27;20043;-48
2023/11/14 10:39:27;;;;;;;26.17;5.32;;;;;;;13.06;100.00;100130.34;5134744;27;20072;-47
2023/11/14 10:41:57;;;;;;;27.90;5.55;;;;;;;13.09;100.00;100130.06;5132328;27;20409;-49
2023/11/14 10:44:26;;;;;;;26.48;4.93;;;;;;;13.13;100.00;100132.31;5113297;27;20059;-48
2023/11/14 10:46:58;;;;;;;30.75;5.15;;;;;;;13.13;100.00;100129.69;5133876;27;20043;-49
2023/11/14 10:49:26;;;;;;;23.30;5.25;;;;;;;13.18;100.00;100135.41;5135302;27;20103;-48
2023/11/14 10:51:55;;;;;;;29.10;6.15;;;;;;;13.16;100.00;100125.94;5132173;27;20417;-47
2023/11/14 10:54:23;;;;;;;28.17;5.53;;;;;;;13.15;100.00;100140.13;5131862;27;20050;-48
2023/11/14 10:56:52;;;;;;;28.48;4.80;;;;;;;13.16;100.00;100123.31;5131973;27;20410;-45
2023/11/14 10:59:30;;;;;;;30.13;5.43;;;;;;;13.17;100.00;100128.44;5112606;27;20390;-45
2023/11/14 11:01:59;;;;;;;23.90;5.50;;;;;;;13.11;100.00;100123.69;5113379;27;20046;-47
2023/11/14 11:04:28;;;;;;;25.73;5.75;;;;;;;13.12;100.00;100111.34;5131266;27;20074;-46
2023/11/14 11:06:56;;;;;;;22.00;4.25;;;;;;;13.15;100.00;100113.72;5134441;27;20055;-46
2023/11/14 11:09:27;;;;;;;24.58;4.68;;;;;;;13.16;100.00;100112.75;5133155;27;20557;-59
2023/11/14 11:11:59;;;;;;;33.95;5.80;;;;;;;13.20;100.00;100108.88;5133756;27;20075;-48
2023/11/14 11:14:27;;;;;;;33.45;5.55;;;;;;;13.19;100.00;100110.66;5131239;27;20059;-51
2023/11/14 11:16:55;;;;;;;25.33;5.47;;;;;;;13.22;100.00;100108.72;5134858;27;20058;-57
2023/11/14 11:19:28;;;;;;;28.65;5.25;;;;;;;13.22;100.00;100109.56;5115862;27;20488;-47
2023/11/14 11:22:04;;;;;;;32.22;5.05;;;;;;;13.22;100.00;100104.28;5131839;27;20051;-46